createdAt,value
2022-10-05T00:00:32.553Z,100723.22
2022-10-05T00:03:09.950Z,100718.19
2022-10-05T00:05:38.075Z,100728.25
2022-10-05T00:08:19.379Z,100720.72
2022-10-05T00:10:47.007Z,100725.78
2022-10-05T00:13:24.629Z,100715.72
2022-10-05T00:16:05.400Z,100714.50
2022-10-05T00:18:35.701Z,100715.94
2022-10-05T00:21:17.073Z,100716.84
2022-10-05T00:23:45.095Z,100700.59
2022-10-05T00:26:19.370Z,100705.66
2022-10-05T00:28:48.558Z,100705.50
2022-10-05T00:31:27.176Z,100704.19
2022-10-05T00:33:55.693Z,100698.19
2022-10-05T00:36:27.286Z,100707.13
2022-10-05T00:38:56.237Z,100700.06
2022-10-05T00:41:29.760Z,100697.81
2022-10-05T00:44:20.336Z,100703.84
2022-10-05T00:47:07.990Z,100705.78
2022-10-05T00:50:09.045Z,100711.25
2022-10-05T00:52:41.924Z,100718.50
2022-10-05T00:55:36.246Z,100710.47
2022-10-05T00:58:18.246Z,100709.41
2022-10-05T01:00:59.088Z,100701.66
2022-10-05T01:03:54.241Z,100708.88
2022-10-05T01:06:26.119Z,100712.50
2022-10-05T01:09:26.485Z,100710.47
2022-10-05T01:12:05.583Z,100702.56
2022-10-05T01:14:54.702Z,100706.88
2022-10-05T01:17:35.372Z,100715.03
2022-10-05T01:20:36.858Z,100720.38
2022-10-05T01:23:30.308Z,100724.25
2022-10-05T01:26:25.300Z,100734.84
2022-10-05T01:29:15.813Z,100735.81
2022-10-05T01:32:04.755Z,100730.84
2022-10-05T01:35:03.750Z,100737.63
2022-10-05T01:37:35.512Z,100746.53
2022-10-05T01:40:33.395Z,100744.50
2022-10-05T01:43:21.740Z,100739.31
2022-10-05T01:45:56.258Z,100744.25
2022-10-05T01:48:35.781Z,100737.09
2022-10-05T01:51:18.670Z,100736.03
2022-10-05T01:54:04.135Z,100736.22
2022-10-05T01:56:44.066Z,100731.34
2022-10-05T01:59:42.560Z,100736.44
2022-10-05T02:02:15.505Z,100739.25
2022-10-05T02:05:11.933Z,100741.56
2022-10-05T02:07:44.646Z,100738.94
2022-10-05T02:10:19.037Z,100749.44
2022-10-05T02:12:47.334Z,100751.78
2022-10-05T02:15:19.957Z,100756.78
2022-10-05T02:18:00.011Z,100752.03
2022-10-05T02:23:25.738Z,100752.69
2022-10-05T02:25:59.116Z,100753.09
2022-10-05T02:28:56.420Z,100751.84
2022-10-05T02:31:29.471Z,100752.59
2022-10-05T02:34:20.245Z,100754.91
2022-10-05T02:37:06.565Z,100755.00
2022-10-05T02:40:04.933Z,100762.69
2022-10-05T02:43:00.380Z,100763.84
2022-10-05T02:45:43.270Z,100756.72
2022-10-05T02:48:42.966Z,100753.88
2022-10-05T02:51:26.698Z,100764.25
2022-10-05T02:54:06.297Z,100762.37
2022-10-05T02:57:04.101Z,100760.16
2022-10-05T02:59:41.832Z,100765.41
2022-10-05T03:02:10.614Z,100763.66
2022-10-05T03:05:10.033Z,100756.88
2022-10-05T03:07:50.011Z,100757.50
2022-10-05T03:10:29.203Z,100750.44
2022-10-05T03:12:57.708Z,100753.75
2022-10-05T03:15:53.262Z,100750.22
2022-10-05T03:18:30.806Z,100741.31
2022-10-05T03:21:42.765Z,100737.97
2022-10-05T03:24:35.915Z,100732.19
2022-10-05T03:27:17.523Z,100718.69
2022-10-05T03:30:04.268Z,100721.75
2022-10-05T03:32:51.432Z,100727.84
2022-10-05T03:35:39.527Z,100724.25
2022-10-05T03:38:19.109Z,100729.53
2022-10-05T03:40:51.791Z,100733.53
2022-10-05T03:43:47.941Z,100736.97
2022-10-05T03:46:29.376Z,100741.78
2022-10-05T03:49:11.359Z,100747.50
2022-10-05T03:51:45.863Z,100742.13
2022-10-05T03:54:21.434Z,100747.72
2022-10-05T03:57:08.217Z,100753.97
2022-10-05T04:00:17.260Z,100762.59
2022-10-05T04:02:54.922Z,100765.16
2022-10-05T04:05:27.873Z,100761.19
2022-10-05T04:08:18.510Z,100762.66
2022-10-05T04:11:00.742Z,100766.41
2022-10-05T04:13:54.375Z,100760.72
2022-10-05T04:16:42.119Z,100769.66
2022-10-05T04:19:26.569Z,100763.22
2022-10-05T04:22:09.726Z,100758.50
2022-10-05T04:24:42.731Z,100774.47
2022-10-05T04:27:20.929Z,100764.25
2022-10-05T04:30:09.394Z,100772.87
2022-10-05T04:32:48.317Z,100764.62
2022-10-05T04:35:45.943Z,100762.25
2022-10-05T04:38:49.325Z,100758.81
2022-10-05T04:41:29.675Z,100767.75
2022-10-05T04:44:08.414Z,100760.88
2022-10-05T04:47:11.673Z,100764.88
2022-10-05T04:50:22.747Z,100770.50
2022-10-05T04:53:19.398Z,100763.31
2022-10-05T04:56:00.748Z,100772.37
2022-10-05T04:58:55.753Z,100782.16
2022-10-05T05:01:40.321Z,100773.16
2022-10-05T05:04:32.697Z,100766.03
2022-10-05T05:07:23.099Z,100767.56
2022-10-05T05:09:52.472Z,100773.16
2022-10-05T05:12:26.772Z,100771.19
2022-10-05T05:15:10.873Z,100767.72
2022-10-05T05:18:11.285Z,100765.69
2022-10-05T05:21:12.952Z,100757.75
2022-10-05T05:23:52.239Z,100761.50
2022-10-05T05:26:40.718Z,100762.41
2022-10-05T05:29:19.369Z,100769.50
2022-10-05T05:32:28.285Z,100774.22
2022-10-05T05:35:23.559Z,100765.00
2022-10-05T05:38:19.237Z,100779.87
2022-10-05T05:41:19.005Z,100781.28
2022-10-05T05:44:00.585Z,100783.69
2022-10-05T05:47:02.432Z,100794.34
2022-10-05T05:49:36.311Z,100800.03
2022-10-05T05:52:34.777Z,100799.41
2022-10-05T05:55:08.912Z,100804.75
2022-10-05T05:57:43.630Z,100815.97
2022-10-05T06:00:15.562Z,100814.78
2022-10-05T06:03:04.181Z,100819.25
2022-10-05T06:05:47.781Z,100817.81
2022-10-05T06:08:43.688Z,100814.47
2022-10-05T06:11:21.836Z,100825.88
2022-10-05T06:13:52.227Z,100827.56
2022-10-05T06:16:26.069Z,100835.53
2022-10-05T06:19:03.829Z,100840.59
2022-10-05T06:21:41.806Z,100855.09
2022-10-05T06:24:23.321Z,100867.97
2022-10-05T06:27:15.668Z,100870.28
2022-10-05T06:30:16.060Z,100875.47
2022-10-05T06:32:53.049Z,100867.69
2022-10-05T06:35:34.086Z,100863.38
2022-10-05T06:38:02.406Z,100881.06
2022-10-05T06:40:42.290Z,100878.91
2022-10-05T06:43:16.708Z,100882.28
2022-10-05T06:45:54.167Z,100887.13
2022-10-05T06:49:01.350Z,100898.50
2022-10-05T06:51:38.851Z,100886.38
2022-10-05T06:54:39.475Z,100887.94
2022-10-05T06:57:24.513Z,100903.59
2022-10-05T07:00:27.971Z,100895.84
2022-10-05T07:03:13.019Z,100896.47
2022-10-05T07:06:02.883Z,100903.44
2022-10-05T07:09:05.102Z,100908.47
2022-10-05T07:12:04.449Z,100917.53
2022-10-05T07:14:47.384Z,100915.84
2022-10-05T07:17:57.767Z,100911.50
2022-10-05T07:20:44.497Z,100916.00
2022-10-05T07:23:45.497Z,100913.62
2022-10-05T07:26:41.177Z,100903.03
2022-10-05T07:29:46.479Z,100896.16
2022-10-05T07:32:40.058Z,100898.22
2022-10-05T07:35:46.553Z,100911.41
2022-10-05T07:38:41.144Z,100921.50
2022-10-05T07:41:25.007Z,100909.22
2022-10-05T07:44:26.019Z,100908.69
2022-10-05T07:46:57.062Z,100915.31
2022-10-05T07:49:52.463Z,100916.56
2022-10-05T07:52:44.206Z,100907.22
2022-10-05T07:55:21.958Z,100911.81
2022-10-05T07:58:29.714Z,100903.94
2022-10-05T08:01:13.141Z,100904.50
2022-10-05T08:03:47.415Z,100910.84
2022-10-05T08:06:39.322Z,100918.09
2022-10-05T08:09:19.254Z,100920.78
2022-10-05T08:12:02.406Z,100921.47
2022-10-05T08:15:04.623Z,100924.75
2022-10-05T08:17:48.886Z,100919.69
2022-10-05T08:20:25.455Z,100917.44
2022-10-05T08:23:24.042Z,100917.69
2022-10-05T08:26:29.915Z,100915.72
2022-10-05T08:29:17.817Z,100914.56
2022-10-05T08:31:50.553Z,100906.00
2022-10-05T08:34:33.876Z,100899.34
2022-10-05T08:37:19.535Z,100895.09
2022-10-05T08:40:03.501Z,100894.97
2022-10-05T08:43:03.371Z,100899.31
2022-10-05T08:45:44.960Z,100890.81
2022-10-05T08:48:18.084Z,100889.13
2022-10-05T08:51:15.954Z,100889.19
2022-10-05T08:54:06.770Z,100880.81
2022-10-05T08:56:50.214Z,100876.22
2022-10-05T08:59:38.386Z,100886.28
2022-10-05T09:02:29.994Z,100881.59
2022-10-05T09:05:17.411Z,100882.94
2022-10-05T09:08:28.666Z,100878.50
2022-10-05T09:11:04.031Z,100884.09
2022-10-05T09:13:56.974Z,100890.87
2022-10-05T09:16:39.985Z,100903.31
2022-10-05T09:19:14.877Z,100893.69
2022-10-05T09:21:56.052Z,100902.25
2022-10-05T09:24:28.312Z,100914.81
2022-10-05T09:27:34.619Z,100912.66
2022-10-05T09:30:14.344Z,100916.78
2022-10-05T09:33:14.645Z,100920.47
2022-10-05T09:36:10.054Z,100911.87
2022-10-05T09:39:33.882Z,100915.75
2022-10-05T09:42:26.361Z,100922.00
2022-10-05T09:45:23.618Z,100920.00
2022-10-05T09:48:00.273Z,100922.38
2022-10-05T09:50:44.583Z,100924.41
2022-10-05T09:53:40.760Z,100921.09
2022-10-05T09:56:39.797Z,100909.88
2022-10-05T09:59:43.992Z,100908.84
2022-10-05T10:02:40.636Z,100904.34
2022-10-05T10:05:40.112Z,100907.09
2022-10-05T10:08:17.309Z,100915.16
2022-10-05T10:10:52.934Z,100916.81
2022-10-05T10:14:02.589Z,100905.00
2022-10-05T10:16:44.012Z,100901.03
2022-10-05T10:19:31.368Z,100904.19
2022-10-05T10:22:31.693Z,100906.56
2022-10-05T10:25:15.748Z,100909.38
2022-10-05T10:27:54.583Z,100904.44
2022-10-05T10:30:54.769Z,100897.34
2022-10-05T10:33:51.445Z,100901.31
2022-10-05T10:37:03.760Z,100915.47
2022-10-05T10:39:43.010Z,100897.25
2022-10-05T10:42:26.247Z,100902.81
2022-10-05T10:45:05.178Z,100904.81
2022-10-05T10:47:43.936Z,100905.19
2022-10-05T10:50:51.328Z,100903.19
2022-10-05T10:53:48.489Z,100905.69
2022-10-05T10:56:45.402Z,100897.63
2022-10-05T10:59:33.104Z,100902.81
2022-10-05T11:02:40.312Z,100900.50
2022-10-05T11:05:57.790Z,100892.59
2022-10-05T11:09:31.860Z,100892.47
2022-10-05T11:12:33.657Z,100899.19
2022-10-05T11:15:11.973Z,100900.38
2022-10-05T11:17:49.511Z,100895.50
2022-10-05T11:20:36.443Z,100896.50
2022-10-05T11:23:39.145Z,100887.22
2022-10-05T11:26:25.351Z,100881.13
2022-10-05T11:29:18.145Z,100884.78
2022-10-05T11:32:05.521Z,100877.56
2022-10-05T11:34:53.258Z,100887.00
2022-10-05T11:37:46.421Z,100878.41
2022-10-05T11:40:48.261Z,100870.31
2022-10-05T11:43:19.325Z,100876.12
2022-10-05T11:46:05.576Z,100871.44
2022-10-05T11:48:56.430Z,100855.41
2022-10-05T11:51:39.359Z,100859.25
2022-10-05T11:55:09.085Z,100857.66
2022-10-05T11:57:49.447Z,100847.03
2022-10-05T12:00:21.245Z,100855.22
2022-10-05T12:02:59.800Z,100856.72
2022-10-05T12:06:09.397Z,100848.38
2022-10-05T12:09:03.713Z,100833.78
2022-10-05T12:11:47.047Z,100829.97
2022-10-05T12:14:28.638Z,100831.00
2022-10-05T12:17:44.350Z,100835.69
2022-10-05T12:20:19.194Z,100838.75
2022-10-05T12:22:55.449Z,100833.63
2022-10-05T12:25:38.734Z,100841.56
2022-10-05T12:28:12.432Z,100829.03
2022-10-05T12:31:17.787Z,100832.94
2022-10-05T12:34:10.374Z,100833.09
2022-10-05T12:37:05.354Z,100826.56
2022-10-05T12:40:07.121Z,100834.31
2022-10-05T12:42:42.283Z,100828.84
2022-10-05T12:45:33.594Z,100826.75
2022-10-05T12:48:18.959Z,100821.16
2022-10-05T12:50:57.421Z,100819.91
2022-10-05T12:53:35.774Z,100816.50
2022-10-05T12:56:48.261Z,100810.41
2022-10-05T12:59:41.581Z,100814.50
2022-10-05T13:02:42.121Z,100810.47
2022-10-05T13:05:40.789Z,100800.06
2022-10-05T13:08:09.070Z,100801.66
2022-10-05T13:10:58.863Z,100798.94
2022-10-05T13:13:42.153Z,100796.81
2022-10-05T13:16:32.302Z,100800.88
2022-10-05T13:19:19.553Z,100804.25
2022-10-05T13:22:30.867Z,100802.72
2022-10-05T13:25:22.939Z,100806.03
2022-10-05T13:28:02.478Z,100797.38
2022-10-05T13:30:31.682Z,100791.75
2022-10-05T13:33:05.165Z,100789.66
2022-10-05T13:35:46.521Z,100788.94
2022-10-05T13:38:42.464Z,100787.38
2022-10-05T13:41:19.978Z,100792.69
2022-10-05T13:44:25.213Z,100788.84
2022-10-05T13:47:25.340Z,100793.53
2022-10-05T13:50:06.014Z,100790.38
2022-10-05T13:53:04.620Z,100796.87
2022-10-05T13:55:52.229Z,100786.63
2022-10-05T13:59:05.109Z,100790.81
2022-10-05T14:01:52.901Z,100786.13
2022-10-05T14:04:46.946Z,100783.34
2022-10-05T14:08:07.058Z,100789.87
2022-10-05T14:10:44.238Z,100785.41
2022-10-05T14:13:29.386Z,100788.00
2022-10-05T14:16:22.357Z,100786.22
2022-10-05T14:19:05.123Z,100782.25
2022-10-05T14:21:47.496Z,100793.06
2022-10-05T14:24:43.818Z,100784.25
2022-10-05T14:27:24.014Z,100791.91
2022-10-05T14:30:00.788Z,100791.06
2022-10-05T14:32:34.763Z,100789.03
2022-10-05T14:35:16.932Z,100794.44
2022-10-05T14:37:56.132Z,100783.81
2022-10-05T14:40:29.016Z,100791.38
2022-10-05T14:43:16.432Z,100791.34
2022-10-05T14:46:27.173Z,100789.59
2022-10-05T14:49:24.392Z,100780.81
2022-10-05T14:52:04.401Z,100782.37
2022-10-05T14:55:29.225Z,100782.59
2022-10-05T14:58:13.878Z,100783.69
2022-10-05T15:01:02.566Z,100785.06
2022-10-05T15:03:59.557Z,100781.38
2022-10-05T15:07:18.951Z,100788.66
2022-10-05T15:10:06.677Z,100781.38
2022-10-05T15:12:39.531Z,100787.62
2022-10-05T15:15:34.325Z,100785.19
2022-10-05T15:18:32.458Z,100786.66
2022-10-05T15:22:02.354Z,100778.44
2022-10-05T15:25:04.160Z,100767.41
2022-10-05T15:27:56.638Z,100751.94
2022-10-05T15:30:27.713Z,100751.63
2022-10-05T15:33:23.855Z,100751.22
2022-10-05T15:36:17.965Z,100753.41
2022-10-05T15:39:02.154Z,100761.16
2022-10-05T15:41:50.340Z,100764.69
2022-10-05T15:44:49.249Z,100750.78
2022-10-05T15:47:46.609Z,100748.72
2022-10-05T15:50:25.943Z,100741.81
2022-10-05T15:53:17.234Z,100738.09
2022-10-05T15:56:32.098Z,100752.84
2022-10-05T15:59:27.967Z,100750.31
2022-10-05T16:02:01.993Z,100757.84
2022-10-05T16:05:04.475Z,100755.94
2022-10-05T16:08:01.748Z,100741.28
2022-10-05T16:10:34.898Z,100745.22
2022-10-05T16:13:22.115Z,100757.06
2022-10-05T16:16:16.460Z,100754.41
2022-10-05T16:19:24.955Z,100747.91
2022-10-05T16:22:07.081Z,100759.19
2022-10-05T16:24:40.068Z,100757.97
2022-10-05T16:27:37.487Z,100768.38
2022-10-05T16:30:17.324Z,100769.94
2022-10-05T16:33:34.479Z,100770.41
2022-10-05T16:36:12.403Z,100771.31
2022-10-05T16:39:04.009Z,100777.75
2022-10-05T16:41:56.154Z,100775.41
2022-10-05T16:44:37.274Z,100772.81
2022-10-05T16:47:09.595Z,100784.06
2022-10-05T16:50:16.347Z,100787.50
2022-10-05T16:52:51.755Z,100791.59
2022-10-05T16:55:27.445Z,100787.41
2022-10-05T16:57:57.121Z,100786.19
2022-10-05T17:00:37.999Z,100783.88
2022-10-05T17:03:26.135Z,100793.56
2022-10-05T17:06:19.946Z,100787.91
2022-10-05T17:08:55.485Z,100801.47
2022-10-05T17:11:36.789Z,100801.72
2022-10-05T17:14:51.680Z,100814.78
2022-10-05T17:17:37.160Z,100811.03
2022-10-05T17:20:22.705Z,100810.84
2022-10-05T17:23:00.306Z,100806.87
2022-10-05T17:25:53.159Z,100809.59
2022-10-05T17:28:40.365Z,100804.19
2022-10-05T17:31:28.923Z,100809.97
2022-10-05T17:34:28.778Z,100813.16
2022-10-05T17:37:19.303Z,100816.59
2022-10-05T17:39:51.408Z,100815.41
2022-10-05T17:42:26.582Z,100814.09
2022-10-05T17:44:58.079Z,100815.72
2022-10-05T17:47:57.826Z,100828.38
2022-10-05T17:51:02.608Z,100820.03
2022-10-05T17:54:03.161Z,100817.50
2022-10-05T17:56:57.476Z,100821.03
2022-10-05T17:59:49.450Z,100824.69
2022-10-05T18:02:40.790Z,100827.59
2022-10-05T18:05:31.571Z,100819.78
2022-10-05T18:08:16.753Z,100831.59
2022-10-05T18:11:36.929Z,100816.87
2022-10-05T18:14:27.435Z,100816.78
2022-10-05T18:17:08.158Z,100816.56
2022-10-05T18:19:38.394Z,100812.12
2022-10-05T18:22:28.072Z,100815.50
2022-10-05T18:25:04.653Z,100815.56
2022-10-05T18:28:01.516Z,100828.50
2022-10-05T18:30:40.919Z,100821.81
2022-10-05T18:33:50.815Z,100824.88
2022-10-05T18:36:39.863Z,100822.38
2022-10-05T18:39:22.660Z,100830.28
2022-10-05T18:42:02.952Z,100822.44
2022-10-05T18:44:44.423Z,100818.09
2022-10-05T18:47:30.997Z,100818.91
2022-10-05T18:50:15.041Z,100813.97
2022-10-05T18:53:21.246Z,100817.94
2022-10-05T18:56:16.402Z,100811.56
2022-10-05T18:58:59.970Z,100806.87
2022-10-05T19:01:44.202Z,100810.22
2022-10-05T19:04:34.651Z,100809.63
2022-10-05T19:07:45.173Z,100809.72
2022-10-05T19:10:30.845Z,100814.88
2022-10-05T19:13:25.011Z,100819.34
2022-10-05T19:16:25.626Z,100812.72
2022-10-05T19:19:07.944Z,100821.75
2022-10-05T19:22:06.781Z,100821.72
2022-10-05T19:25:15.204Z,100827.13
2022-10-05T19:27:55.178Z,100828.81
2022-10-05T19:30:27.232Z,100825.91
2022-10-05T19:33:33.683Z,100833.09
2022-10-05T19:36:18.573Z,100831.44
2022-10-05T19:39:30.457Z,100823.78
2022-10-05T19:42:38.308Z,100826.38
2022-10-05T19:45:12.998Z,100818.91
2022-10-05T19:48:04.421Z,100823.84
2022-10-05T19:50:34.687Z,100832.97
2022-10-05T19:53:21.136Z,100832.28
2022-10-05T19:55:49.895Z,100842.00
2022-10-05T19:58:30.034Z,100833.41
2022-10-05T20:01:06.999Z,100838.94
2022-10-05T20:03:38.615Z,100839.16
2022-10-05T20:06:08.179Z,100832.53
2022-10-05T20:08:42.112Z,100840.87
2022-10-05T20:11:21.996Z,100844.53
2022-10-05T20:13:52.743Z,100844.09
2022-10-05T20:16:45.220Z,100855.94
2022-10-05T20:19:50.402Z,100857.63
2022-10-05T20:22:28.432Z,100857.69
2022-10-05T20:25:01.967Z,100849.59
2022-10-05T20:27:41.980Z,100862.12
2022-10-05T20:30:12.709Z,100866.69
2022-10-05T20:32:41.212Z,100865.88
2022-10-05T20:35:09.340Z,100869.78
2022-10-05T20:37:37.739Z,100875.88
2022-10-05T20:40:12.035Z,100869.19
2022-10-05T20:42:40.920Z,100868.19
2022-10-05T20:45:10.215Z,100872.06
2022-10-05T20:47:38.389Z,100864.03
2022-10-05T20:50:19.127Z,100856.59
2022-10-05T20:52:50.791Z,100863.81
2022-10-05T20:55:21.257Z,100859.91
2022-10-05T20:57:50.259Z,100861.59
2022-10-05T21:00:18.656Z,100864.50
2022-10-05T21:02:47.010Z,100857.22
2022-10-05T21:05:15.136Z,100855.78
2022-10-05T21:07:43.522Z,100864.78
2022-10-05T21:10:11.593Z,100857.91
2022-10-05T21:12:39.644Z,100869.09
2022-10-05T21:15:17.636Z,100865.09
2022-10-05T21:17:45.891Z,100860.75
2022-10-05T21:20:17.646Z,100864.75
2022-10-05T21:22:45.689Z,100868.03
2022-10-05T21:25:13.571Z,100859.75
2022-10-05T21:27:41.811Z,100858.06
2022-10-05T21:30:11.811Z,100862.44
2022-10-05T21:32:44.202Z,100870.53
2022-10-05T21:35:18.448Z,100873.19
2022-10-05T21:37:48.022Z,100871.53
2022-10-05T21:40:21.095Z,100856.94
2022-10-05T21:42:49.093Z,100863.69
2022-10-05T21:45:32.915Z,100865.75
2022-10-05T21:48:09.404Z,100870.09
2022-10-05T21:50:43.680Z,100865.47
2022-10-05T21:53:19.031Z,100866.75
2022-10-05T21:55:52.692Z,100860.25
2022-10-05T21:58:21.447Z,100873.75
2022-10-05T22:00:49.709Z,100867.09
2022-10-05T22:03:21.556Z,100864.41
2022-10-05T22:05:49.206Z,100861.25
2022-10-05T22:08:34.708Z,100867.34
2022-10-05T22:11:10.652Z,100865.41
2022-10-05T22:13:50.215Z,100858.69
2022-10-05T22:16:24.361Z,100857.78
2022-10-05T22:18:53.747Z,100856.59
2022-10-05T22:21:21.431Z,100855.66
2022-10-05T22:23:54.822Z,100847.53
2022-10-05T22:26:22.754Z,100843.59
2022-10-05T22:28:58.782Z,100840.50
2022-10-05T22:31:26.243Z,100848.22
2022-10-05T22:33:54.006Z,100849.09
2022-10-05T22:36:21.649Z,100843.56
2022-10-05T22:38:49.195Z,100844.75
2022-10-05T22:41:18.446Z,100847.97
2022-10-05T22:43:51.289Z,100844.75
2022-10-05T22:46:19.899Z,100848.13
2022-10-05T22:48:48.029Z,100847.03
2022-10-05T22:51:15.477Z,100841.03
2022-10-05T22:53:45.193Z,100841.56
2022-10-05T22:56:15.175Z,100840.91
2022-10-05T22:58:54.217Z,100836.28
2022-10-05T23:01:22.322Z,100831.97
2022-10-05T23:03:50.126Z,100838.53
2022-10-05T23:06:21.260Z,100829.66
2022-10-05T23:08:48.634Z,100824.81
2022-10-05T23:11:18.990Z,100827.28
2022-10-05T23:13:46.433Z,100824.97
2022-10-05T23:16:22.939Z,100823.34
2022-10-05T23:18:52.423Z,100828.69
2022-10-05T23:21:24.841Z,100825.75
2022-10-05T23:23:56.251Z,100818.31
2022-10-05T23:26:25.106Z,100817.25
2022-10-05T23:28:52.885Z,100813.44
2022-10-05T23:31:30.981Z,100812.12
2022-10-05T23:34:01.407Z,100807.59
2022-10-05T23:36:32.857Z,100814.00
2022-10-05T23:39:00.316Z,100813.09
2022-10-05T23:41:30.756Z,100814.53
2022-10-05T23:44:01.253Z,100811.56
2022-10-05T23:46:28.870Z,100808.72
2022-10-05T23:48:56.600Z,100810.34
2022-10-05T23:51:28.980Z,100811.91
2022-10-05T23:53:56.529Z,100812.41
2022-10-05T23:56:24.301Z,100816.47
2022-10-05T23:58:54.305Z,100818.78
